sensor_id;sensor_type;location;lat;lon;timestamp;temperature;humidity
53314;DHT22;39202;51.468;7.146;2023-06-14T00:04:34;34.50;31.10
53314;DHT22;39202;51.468;7.146;2023-06-14T00:09:37;34.50;31.10
53314;DHT22;39202;51.468;7.146;2023-06-14T00:14:38;34.40;31.00
53314;DHT22;39202;51.468;7.146;2023-06-14T00:19:41;34.40;31.10
53314;DHT22;39202;51.468;7.146;2023-06-14T00:24:43;34.40;31.10
53314;DHT22;39202;51.468;7.146;2023-06-14T00:29:45;34.40;31.10
53314;DHT22;39202;51.468;7.146;2023-06-14T00:34:48;34.40;31.20
53314;DHT22;39202;51.468;7.146;2023-06-14T00:39:50;34.40;31.20
53314;DHT22;39202;51.468;7.146;2023-06-14T00:44:51;34.40;31.20
53314;DHT22;39202;51.468;7.146;2023-06-14T00:49:55;34.40;31.90
53314;DHT22;39202;51.468;7.146;2023-06-14T00:54:57;34.30;31.20
53314;DHT22;39202;51.468;7.146;2023-06-14T00:59:59;34.30;31.20
53314;DHT22;39202;51.468;7.146;2023-06-14T01:05:02;34.30;31.20
53314;DHT22;39202;51.468;7.146;2023-06-14T01:10:17;34.30;31.20
53314;DHT22;39202;51.468;7.146;2023-06-14T01:15:21;34.30;31.30
53314;DHT22;39202;51.468;7.146;2023-06-14T01:20:28;34.30;31.30
53314;DHT22;39202;51.468;7.146;2023-06-14T01:25:32;34.20;31.30
53314;DHT22;39202;51.468;7.146;2023-06-14T01:30:37;34.20;31.30
53314;DHT22;39202;51.468;7.146;2023-06-14T01:35:40;34.20;31.30
53314;DHT22;39202;51.468;7.146;2023-06-14T01:40:43;34.20;31.30
53314;DHT22;39202;51.468;7.146;2023-06-14T01:45:47;34.30;31.40
53314;DHT22;39202;51.468;7.146;2023-06-14T01:50:50;34.20;31.30
53314;DHT22;39202;51.468;7.146;2023-06-14T01:55:53;34.20;31.30
53314;DHT22;39202;51.468;7.146;2023-06-14T02:00:55;34.20;31.40
53314;DHT22;39202;51.468;7.146;2023-06-14T02:05:57;34.20;31.40
53314;DHT22;39202;51.468;7.146;2023-06-14T02:11:00;34.20;31.40
53314;DHT22;39202;51.468;7.146;2023-06-14T02:16:02;34.20;31.50
53314;DHT22;39202;51.468;7.146;2023-06-14T02:21:03;34.20;31.40
53314;DHT22;39202;51.468;7.146;2023-06-14T02:26:06;34.20;32.10
53314;DHT22;39202;51.468;7.146;2023-06-14T02:31:08;34.20;31.50
53314;DHT22;39202;51.468;7.146;2023-06-14T02:36:10;34.10;31.40
53314;DHT22;39202;51.468;7.146;2023-06-14T02:41:13;34.10;31.40
53314;DHT22;39202;51.468;7.146;2023-06-14T02:46:15;34.10;31.50
53314;DHT22;39202;51.468;7.146;2023-06-14T02:51:16;34.10;31.50
53314;DHT22;39202;51.468;7.146;2023-06-14T02:56:19;34.00;31.40
53314;DHT22;39202;51.468;7.146;2023-06-14T03:01:25;34.10;31.50
53314;DHT22;39202;51.468;7.146;2023-06-14T03:06:34;34.10;31.50
53314;DHT22;39202;51.468;7.146;2023-06-14T03:11:38;34.10;31.50
53314;DHT22;39202;51.468;7.146;2023-06-14T03:16:40;34.10;31.50
53314;DHT22;39202;51.468;7.146;2023-06-14T03:21:43;34.00;31.50
53314;DHT22;39202;51.468;7.146;2023-06-14T03:26:46;34.00;31.50
53314;DHT22;39202;51.468;7.146;2023-06-14T03:31:58;34.10;31.60
53314;DHT22;39202;51.468;7.146;2023-06-14T03:37:00;34.00;31.60
53314;DHT22;39202;51.468;7.146;2023-06-14T03:42:04;34.00;31.60
53314;DHT22;39202;51.468;7.146;2023-06-14T03:47:06;34.00;31.60
53314;DHT22;39202;51.468;7.146;2023-06-14T03:52:08;34.00;31.60
53314;DHT22;39202;51.468;7.146;2023-06-14T03:57:11;34.00;31.60
53314;DHT22;39202;51.468;7.146;2023-06-14T04:02:13;34.00;31.60
53314;DHT22;39202;51.468;7.146;2023-06-14T04:07:16;34.00;31.60
53314;DHT22;39202;51.468;7.146;2023-06-14T04:12:21;33.90;31.60
53314;DHT22;39202;51.468;7.146;2023-06-14T04:17:23;33.90;31.60
53314;DHT22;39202;51.468;7.146;2023-06-14T04:22:24;33.90;31.60
53314;DHT22;39202;51.468;7.146;2023-06-14T04:27:30;33.90;31.60
53314;DHT22;39202;51.468;7.146;2023-06-14T04:32:36;33.90;31.60
53314;DHT22;39202;51.468;7.146;2023-06-14T04:37:39;33.90;31.70
53314;DHT22;39202;51.468;7.146;2023-06-14T04:42:43;33.90;31.70
53314;DHT22;39202;51.468;7.146;2023-06-14T04:47:46;33.90;31.70
53314;DHT22;39202;51.468;7.146;2023-06-14T04:52:48;33.90;31.70
53314;DHT22;39202;51.468;7.146;2023-06-14T04:57:53;33.90;31.70
53314;DHT22;39202;51.468;7.146;2023-06-14T05:02:54;33.90;31.70
53314;DHT22;39202;51.468;7.146;2023-06-14T05:07:57;33.90;31.80
53314;DHT22;39202;51.468;7.146;2023-06-14T05:13:00;33.90;31.80
53314;DHT22;39202;51.468;7.146;2023-06-14T05:18:02;33.90;31.80
53314;DHT22;39202;51.468;7.146;2023-06-14T05:23:04;33.90;32.10
53314;DHT22;39202;51.468;7.146;2023-06-14T05:28:07;34.00;31.90
53314;DHT22;39202;51.468;7.146;2023-06-14T05:33:09;34.00;31.90
53314;DHT22;39202;51.468;7.146;2023-06-14T05:38:11;34.00;31.90
53314;DHT22;39202;51.468;7.146;2023-06-14T05:43:14;34.00;31.90
53314;DHT22;39202;51.468;7.146;2023-06-14T05:48:16;34.00;31.90
53314;DHT22;39202;51.468;7.146;2023-06-14T05:53:17;34.10;32.00
53314;DHT22;39202;51.468;7.146;2023-06-14T05:58:20;34.10;31.90
53314;DHT22;39202;51.468;7.146;2023-06-14T06:03:22;34.10;31.90
53314;DHT22;39202;51.468;7.146;2023-06-14T06:08:25;34.20;32.00
53314;DHT22;39202;51.468;7.146;2023-06-14T06:13:28;34.20;31.90
53314;DHT22;39202;51.468;7.146;2023-06-14T06:18:30;34.20;31.90
53314;DHT22;39202;51.468;7.146;2023-06-14T06:23:32;34.20;31.90
53314;DHT22;39202;51.468;7.146;2023-06-14T06:28:35;34.20;31.80
53314;DHT22;39202;51.468;7.146;2023-06-14T06:33:37;34.30;31.90
53314;DHT22;39202;51.468;7.146;2023-06-14T06:38:40;34.30;31.80
53314;DHT22;39202;51.468;7.146;2023-06-14T06:43:43;34.30;31.80
53314;DHT22;39202;51.468;7.146;2023-06-14T06:48:45;34.40;31.90
53314;DHT22;39202;51.468;7.146;2023-06-14T06:53:52;34.40;31.80
53314;DHT22;39202;51.468;7.146;2023-06-14T06:58:56;34.40;31.80
53314;DHT22;39202;51.468;7.146;2023-06-14T07:03:57;34.40;31.80
53314;DHT22;39202;51.468;7.146;2023-06-14T07:09:00;34.50;31.80
53314;DHT22;39202;51.468;7.146;2023-06-14T07:14:03;34.50;31.80
53314;DHT22;39202;51.468;7.146;2023-06-14T07:19:05;34.60;31.80
53314;DHT22;39202;51.468;7.146;2023-06-14T07:24:07;34.60;31.80
53314;DHT22;39202;51.468;7.146;2023-06-14T07:29:10;34.60;31.80
53314;DHT22;39202;51.468;7.146;2023-06-14T07:34:12;34.70;31.80
53314;DHT22;39202;51.468;7.146;2023-06-14T07:39:14;34.70;31.70
53314;DHT22;39202;51.468;7.146;2023-06-14T07:44:17;34.70;31.70
53314;DHT22;39202;51.468;7.146;2023-06-14T07:49:19;34.80;31.80
53314;DHT22;39202;51.468;7.146;2023-06-14T07:54:21;34.80;31.80
53314;DHT22;39202;51.468;7.146;2023-06-14T07:59:26;34.90;31.80
53314;DHT22;39202;51.468;7.146;2023-06-14T08:04:28;34.90;31.70
53314;DHT22;39202;51.468;7.146;2023-06-14T08:09:30;35.00;31.80
53314;DHT22;39202;51.468;7.146;2023-06-14T08:14:33;35.00;31.70
53314;DHT22;39202;51.468;7.146;2023-06-14T08:19:35;35.00;31.70
53314;DHT22;39202;51.468;7.146;2023-06-14T08:24:37;35.10;31.70
53314;DHT22;39202;51.468;7.146;2023-06-14T08:29:41;35.10;31.70
53314;DHT22;39202;51.468;7.146;2023-06-14T08:34:44;35.20;31.70
53314;DHT22;39202;51.468;7.146;2023-06-14T08:39:46;35.20;31.70
53314;DHT22;39202;51.468;7.146;2023-06-14T08:44:49;35.20;31.60
53314;DHT22;39202;51.468;7.146;2023-06-14T08:49:51;35.20;31.50
53314;DHT22;39202;51.468;7.146;2023-06-14T08:54:56;35.30;31.60
53314;DHT22;39202;51.468;7.146;2023-06-14T09:00:00;35.30;31.60
53314;DHT22;39202;51.468;7.146;2023-06-14T09:05:10;35.30;31.60
53314;DHT22;39202;51.468;7.146;2023-06-14T09:10:15;35.30;31.50
53314;DHT22;39202;51.468;7.146;2023-06-14T09:15:18;35.50;31.50
53314;DHT22;39202;51.468;7.146;2023-06-14T09:20:21;35.50;31.50
53314;DHT22;39202;51.468;7.146;2023-06-14T09:25:22;35.50;31.50
53314;DHT22;39202;51.468;7.146;2023-06-14T09:30:26;35.60;31.50
53314;DHT22;39202;51.468;7.146;2023-06-14T09:35:28;35.60;31.40
53314;DHT22;39202;51.468;7.146;2023-06-14T09:40:34;35.60;31.50
53314;DHT22;39202;51.468;7.146;2023-06-14T09:45:40;35.70;31.50
53314;DHT22;39202;51.468;7.146;2023-06-14T09:50:41;35.70;31.40
53314;DHT22;39202;51.468;7.146;2023-06-14T09:55:44;35.70;31.30
53314;DHT22;39202;51.468;7.146;2023-06-14T10:00:47;35.80;31.40
53314;DHT22;39202;51.468;7.146;2023-06-14T10:05:52;35.80;31.30
53314;DHT22;39202;51.468;7.146;2023-06-14T10:10:55;35.90;31.30
53314;DHT22;39202;51.468;7.146;2023-06-14T10:16:05;35.90;31.20
53314;DHT22;39202;51.468;7.146;2023-06-14T10:21:15;36.00;31.20
53314;DHT22;39202;51.468;7.146;2023-06-14T10:26:19;36.10;31.20
53314;DHT22;39202;51.468;7.146;2023-06-14T10:31:40;36.10;30.80
53314;DHT22;39202;51.468;7.146;2023-06-14T10:36:42;36.10;30.00
53314;DHT22;39202;51.468;7.146;2023-06-14T10:41:51;36.10;29.80
53314;DHT22;39202;51.468;7.146;2023-06-14T10:46:56;36.00;29.30
53314;DHT22;39202;51.468;7.146;2023-06-14T10:51:59;36.00;29.30
53314;DHT22;39202;51.468;7.146;2023-06-14T10:57:01;35.80;29.20
53314;DHT22;39202;51.468;7.146;2023-06-14T11:02:27;35.80;29.20
53314;DHT22;39202;51.468;7.146;2023-06-14T11:07:43;35.70;28.90
53314;DHT22;39202;51.468;7.146;2023-06-14T11:12:49;35.70;28.80
53314;DHT22;39202;51.468;7.146;2023-06-14T11:17:55;35.60;28.80
53314;DHT22;39202;51.468;7.146;2023-06-14T11:22:58;35.60;28.80
53314;DHT22;39202;51.468;7.146;2023-06-14T11:28:00;35.50;28.80
53314;DHT22;39202;51.468;7.146;2023-06-14T11:33:03;35.50;28.80
53314;DHT22;39202;51.468;7.146;2023-06-14T11:38:05;35.40;28.80
53314;DHT22;39202;51.468;7.146;2023-06-14T11:43:07;35.30;28.70
53314;DHT22;39202;51.468;7.146;2023-06-14T11:48:10;35.20;28.60
53314;DHT22;39202;51.468;7.146;2023-06-14T11:53:12;35.20;28.70
53314;DHT22;39202;51.468;7.146;2023-06-14T11:58:14;35.10;28.70
53314;DHT22;39202;51.468;7.146;2023-06-14T12:03:22;35.00;28.60
53314;DHT22;39202;51.468;7.146;2023-06-14T12:08:32;35.00;28.40
53314;DHT22;39202;51.468;7.146;2023-06-14T12:13:40;34.90;28.40
53314;DHT22;39202;51.468;7.146;2023-06-14T12:18:43;34.90;28.40
53314;DHT22;39202;51.468;7.146;2023-06-14T12:23:47;34.80;28.40
53314;DHT22;39202;51.468;7.146;2023-06-14T12:28:51;34.80;28.40
53314;DHT22;39202;51.468;7.146;2023-06-14T12:33:54;34.70;28.40
53314;DHT22;39202;51.468;7.146;2023-06-14T12:38:56;34.70;28.50
53314;DHT22;39202;51.468;7.146;2023-06-14T12:43:58;34.70;28.40
53314;DHT22;39202;51.468;7.146;2023-06-14T12:49:03;34.70;28.30
53314;DHT22;39202;51.468;7.146;2023-06-14T12:54:06;34.70;28.40
53314;DHT22;39202;51.468;7.146;2023-06-14T12:59:08;34.60;28.40
53314;DHT22;39202;51.468;7.146;2023-06-14T13:04:11;34.60;28.40
53314;DHT22;39202;51.468;7.146;2023-06-14T13:09:13;34.60;28.40
53314;DHT22;39202;51.468;7.146;2023-06-14T13:14:15;34.50;28.30
53314;DHT22;39202;51.468;7.146;2023-06-14T13:19:19;34.40;28.30
53314;DHT22;39202;51.468;7.146;2023-06-14T13:24:20;34.40;28.20
53314;DHT22;39202;51.468;7.146;2023-06-14T13:29:22;34.40;28.30
53314;DHT22;39202;51.468;7.146;2023-06-14T13:34:26;34.40;28.20
53314;DHT22;39202;51.468;7.146;2023-06-14T13:39:27;34.40;28.30
53314;DHT22;39202;51.468;7.146;2023-06-14T13:44:29;34.30;28.20
53314;DHT22;39202;51.468;7.146;2023-06-14T13:49:32;34.30;28.10
53314;DHT22;39202;51.468;7.146;2023-06-14T13:54:35;34.30;28.20
53314;DHT22;39202;51.468;7.146;2023-06-14T13:59:37;34.30;28.40
53314;DHT22;39202;51.468;7.146;2023-06-14T14:04:41;34.30;28.50
53314;DHT22;39202;51.468;7.146;2023-06-14T14:09:42;34.40;28.60
53314;DHT22;39202;51.468;7.146;2023-06-14T14:14:44;34.40;28.70
53314;DHT22;39202;51.468;7.146;2023-06-14T14:19:48;34.50;28.70
53314;DHT22;39202;51.468;7.146;2023-06-14T14:24:49;34.50;28.70
53314;DHT22;39202;51.468;7.146;2023-06-14T14:29:51;34.60;28.80
53314;DHT22;39202;51.468;7.146;2023-06-14T14:34:54;34.70;28.80
53314;DHT22;39202;51.468;7.146;2023-06-14T14:39:56;34.80;28.80
53314;DHT22;39202;51.468;7.146;2023-06-14T14:44:58;34.70;28.80
53314;DHT22;39202;51.468;7.146;2023-06-14T14:50:01;34.80;28.90
53314;DHT22;39202;51.468;7.146;2023-06-14T14:55:03;34.80;28.80
53314;DHT22;39202;51.468;7.146;2023-06-14T15:00:06;34.90;28.90
53314;DHT22;39202;51.468;7.146;2023-06-14T15:05:09;34.90;28.90
53314;DHT22;39202;51.468;7.146;2023-06-14T15:10:11;35.00;28.90
53314;DHT22;39202;51.468;7.146;2023-06-14T15:15:13;35.00;28.90
53314;DHT22;39202;51.468;7.146;2023-06-14T15:20:16;35.00;28.90
53314;DHT22;39202;51.468;7.146;2023-06-14T15:25:18;35.00;28.90
53314;DHT22;39202;51.468;7.146;2023-06-14T15:30:22;35.00;28.90
53314;DHT22;39202;51.468;7.146;2023-06-14T15:35:25;35.00;28.80
53314;DHT22;39202;51.468;7.146;2023-06-14T15:40:27;35.00;28.80
53314;DHT22;39202;51.468;7.146;2023-06-14T15:45:29;35.00;28.80
53314;DHT22;39202;51.468;7.146;2023-06-14T15:50:33;35.00;28.80
53314;DHT22;39202;51.468;7.146;2023-06-14T15:55:34;35.00;28.90
53314;DHT22;39202;51.468;7.146;2023-06-14T16:00:36;35.10;28.90
53314;DHT22;39202;51.468;7.146;2023-06-14T16:05:39;35.10;28.90
53314;DHT22;39202;51.468;7.146;2023-06-14T16:10:41;35.10;28.90
53314;DHT22;39202;51.468;7.146;2023-06-14T16:15:43;35.10;28.90
53314;DHT22;39202;51.468;7.146;2023-06-14T16:20:46;35.10;28.80
53314;DHT22;39202;51.468;7.146;2023-06-14T16:25:48;35.10;28.80
53314;DHT22;39202;51.468;7.146;2023-06-14T16:30:50;35.10;28.70
53314;DHT22;39202;51.468;7.146;2023-06-14T16:35:53;35.20;28.80
53314;DHT22;39202;51.468;7.146;2023-06-14T16:40:54;35.10;28.70
53314;DHT22;39202;51.468;7.146;2023-06-14T16:45:56;35.10;28.70
53314;DHT22;39202;51.468;7.146;2023-06-14T16:50:59;35.10;28.60
53314;DHT22;39202;51.468;7.146;2023-06-14T16:56:02;35.00;28.50
53314;DHT22;39202;51.468;7.146;2023-06-14T17:01:04;35.00;28.50
53314;DHT22;39202;51.468;7.146;2023-06-14T17:06:08;35.00;28.40
53314;DHT22;39202;51.468;7.146;2023-06-14T17:11:09;35.00;28.30
53314;DHT22;39202;51.468;7.146;2023-06-14T17:16:11;35.10;28.30
53314;DHT22;39202;51.468;7.146;2023-06-14T17:21:14;35.00;28.30
53314;DHT22;39202;51.468;7.146;2023-06-14T17:26:16;35.00;28.20
53314;DHT22;39202;51.468;7.146;2023-06-14T17:31:18;35.00;28.20
53314;DHT22;39202;51.468;7.146;2023-06-14T17:36:21;35.00;28.20
53314;DHT22;39202;51.468;7.146;2023-06-14T17:41:23;34.90;28.10
53314;DHT22;39202;51.468;7.146;2023-06-14T17:46:25;34.90;28.10
53314;DHT22;39202;51.468;7.146;2023-06-14T17:51:28;34.90;28.00
53314;DHT22;39202;51.468;7.146;2023-06-14T17:56:29;34.90;28.00
53314;DHT22;39202;51.468;7.146;2023-06-14T18:01:31;34.90;28.10
53314;DHT22;39202;51.468;7.146;2023-06-14T18:06:34;34.80;28.00
53314;DHT22;39202;51.468;7.146;2023-06-14T18:11:36;34.80;28.00
53314;DHT22;39202;51.468;7.146;2023-06-14T18:16:37;34.80;28.00
53314;DHT22;39202;51.468;7.146;2023-06-14T18:21:42;34.80;28.00
53314;DHT22;39202;51.468;7.146;2023-06-14T18:26:44;34.80;28.00
53314;DHT22;39202;51.468;7.146;2023-06-14T18:31:45;34.80;28.00
53314;DHT22;39202;51.468;7.146;2023-06-14T18:36:49;34.80;28.10
53314;DHT22;39202;51.468;7.146;2023-06-14T18:41:50;34.70;28.20
53314;DHT22;39202;51.468;7.146;2023-06-14T18:46:52;34.70;28.20
53314;DHT22;39202;51.468;7.146;2023-06-14T18:51:55;34.70;28.30
53314;DHT22;39202;51.468;7.146;2023-06-14T18:56:57;34.70;28.30
53314;DHT22;39202;51.468;7.146;2023-06-14T19:01:59;34.70;28.40
53314;DHT22;39202;51.468;7.146;2023-06-14T19:07:02;34.70;28.50
53314;DHT22;39202;51.468;7.146;2023-06-14T19:12:07;34.70;28.50
53314;DHT22;39202;51.468;7.146;2023-06-14T19:17:09;34.70;28.30
53314;DHT22;39202;51.468;7.146;2023-06-14T19:22:13;34.70;28.60
53314;DHT22;39202;51.468;7.146;2023-06-14T19:27:15;34.70;28.60
53314;DHT22;39202;51.468;7.146;2023-06-14T19:32:17;34.60;28.60
53314;DHT22;39202;51.468;7.146;2023-06-14T19:37:20;34.70;28.70
53314;DHT22;39202;51.468;7.146;2023-06-14T19:42:21;34.70;28.70
53314;DHT22;39202;51.468;7.146;2023-06-14T19:47:24;34.70;28.70
53314;DHT22;39202;51.468;7.146;2023-06-14T19:52:27;34.70;28.80
53314;DHT22;39202;51.468;7.146;2023-06-14T19:57:29;34.70;28.80
53314;DHT22;39202;51.468;7.146;2023-06-14T20:02:31;34.70;28.90
53314;DHT22;39202;51.468;7.146;2023-06-14T20:07:34;34.70;28.90
53314;DHT22;39202;51.468;7.146;2023-06-14T20:12:38;34.70;28.90
53314;DHT22;39202;51.468;7.146;2023-06-14T20:17:40;34.70;28.90
53314;DHT22;39202;51.468;7.146;2023-06-14T20:22:43;34.70;28.90
53314;DHT22;39202;51.468;7.146;2023-06-14T20:27:44;34.70;29.00
53314;DHT22;39202;51.468;7.146;2023-06-14T20:32:47;34.70;29.00
53314;DHT22;39202;51.468;7.146;2023-06-14T20:37:51;34.70;29.00
53314;DHT22;39202;51.468;7.146;2023-06-14T20:42:52;34.70;29.10
53314;DHT22;39202;51.468;7.146;2023-06-14T20:47:57;34.60;29.00
53314;DHT22;39202;51.468;7.146;2023-06-14T20:53:00;34.60;29.10
53314;DHT22;39202;51.468;7.146;2023-06-14T20:58:02;34.60;29.10
53314;DHT22;39202;51.468;7.146;2023-06-14T21:03:03;34.60;29.10
53314;DHT22;39202;51.468;7.146;2023-06-14T21:08:06;34.60;29.10
53314;DHT22;39202;51.468;7.146;2023-06-14T21:13:09;34.60;29.20
53314;DHT22;39202;51.468;7.146;2023-06-14T21:18:11;34.60;29.20
53314;DHT22;39202;51.468;7.146;2023-06-14T21:23:14;34.60;29.20
53314;DHT22;39202;51.468;7.146;2023-06-14T21:28:16;34.60;29.30
53314;DHT22;39202;51.468;7.146;2023-06-14T21:33:18;34.50;29.30
53314;DHT22;39202;51.468;7.146;2023-06-14T21:38:21;34.50;29.30
53314;DHT22;39202;51.468;7.146;2023-06-14T21:43:23;34.50;29.30
53314;DHT22;39202;51.468;7.146;2023-06-14T21:48:24;34.50;29.30
53314;DHT22;39202;51.468;7.146;2023-06-14T21:53:27;34.50;29.30
53314;DHT22;39202;51.468;7.146;2023-06-14T21:58:32;34.50;29.30
53314;DHT22;39202;51.468;7.146;2023-06-14T22:03:33;34.50;29.30
53314;DHT22;39202;51.468;7.146;2023-06-14T22:08:37;34.50;29.40
53314;DHT22;39202;51.468;7.146;2023-06-14T22:13:41;34.50;29.50
53314;DHT22;39202;51.468;7.146;2023-06-14T22:18:44;34.40;29.40
53314;DHT22;39202;51.468;7.146;2023-06-14T22:23:47;34.40;29.40
53314;DHT22;39202;51.468;7.146;2023-06-14T22:28:49;34.40;29.50
53314;DHT22;39202;51.468;7.146;2023-06-14T22:33:51;34.40;29.50
53314;DHT22;39202;51.468;7.146;2023-06-14T22:38:55;34.40;29.50
53314;DHT22;39202;51.468;7.146;2023-06-14T22:43:57;34.40;29.60
53314;DHT22;39202;51.468;7.146;2023-06-14T22:48:59;34.40;29.60
53314;DHT22;39202;51.468;7.146;2023-06-14T22:54:03;33.80;29.30
53314;DHT22;39202;51.468;7.146;2023-06-14T22:59:06;34.30;29.60
53314;DHT22;39202;51.468;7.146;2023-06-14T23:04:08;34.30;29.60
53314;DHT22;39202;51.468;7.146;2023-06-14T23:09:11;34.30;29.60
53314;DHT22;39202;51.468;7.146;2023-06-14T23:14:13;34.30;29.70
53314;DHT22;39202;51.468;7.146;2023-06-14T23:19:14;34.30;29.70
53314;DHT22;39202;51.468;7.146;2023-06-14T23:24:19;34.30;29.70
53314;DHT22;39202;51.468;7.146;2023-06-14T23:29:20;34.30;29.70
53314;DHT22;39202;51.468;7.146;2023-06-14T23:34:23;33.50;29.40
53314;DHT22;39202;51.468;7.146;2023-06-14T23:39:27;34.20;29.80
53314;DHT22;39202;51.468;7.146;2023-06-14T23:44:29;34.20;29.80
53314;DHT22;39202;51.468;7.146;2023-06-14T23:49:37;34.20;29.80
53314;DHT22;39202;51.468;7.146;2023-06-14T23:54:40;34.20;29.80
53314;DHT22;39202;51.468;7.146;2023-06-14T23:59:41;34.20;29.90
